Latest Weather Observations for Khancoban

IDN60801

Issued at 8:02 am EDT Monday 20 February 2017 (issued every 30 minutes, with the page automatically refreshed every 10 minutes)

About weather observations | Map of weather stations | Latest weather observations for NSW | Other Formats
Station Details ID: 072162 Name: KHANCOBAN AWS Lat: -36.23 Lon: 148.14 Height: 339.3 m
Data from the previous 72 hours. | See also: Recent months at Khancoban
Date/Time
EDT
Temp
°C
App
Temp
°C
Dew
Point
°C
Rel
Hum
%
Delta-T
°C
Wind Press
QNH
hPa
Press
MSL
hPa
Rain since
9am
mm
Dir  Spd
km/h
Gust
km/h
Spd
kts
Gust
kts
20/08:00am 9.0 8.6 8.1 94 0.4 CALM 0 0 0 0 1013.6 1012.1 4.6
20/07:30am 8.6 8.2 8.3 98 0.1 CALM 0 0 0 0 1013.0 1011.5 4.6
20/07:00am 8.8 8.3 7.9 94 0.4 CALM 0 0 0 0 1012.7 1011.1 4.6
20/06:30am 9.1 8.6 7.9 92 0.6 CALM 0 0 0 0 1012.3 1010.7 4.6
20/06:00am 9.2 8.8 8.4 95 0.4 CALM 0 0 0 0 1011.8 1010.3 4.6
20/05:30am 9.1 8.7 8.3 95 0.4 CALM 0 0 0 0 1011.3 1009.8 4.6
20/05:00am 9.3 8.9 8.1 92 0.6 CALM 0 0 0 0 1011.1 1009.6 4.6
20/04:30am 9.4 7.8 7.8 90 0.8 NW 6 7 3 4 1010.9 1009.4 4.6
20/04:00am 9.5 8.0 8.6 94 0.4 NNE 6 9 3 5 1010.8 1009.3 4.6
20/03:30am 10.0 9.1 7.9 87 1.0 ENE 2 7 1 4 1010.7 1009.2 4.6
20/03:00am 10.1 8.5 8.7 91 0.7 ENE 7 11 4 6 1010.6 1009.1 4.6
20/02:30am 10.0 7.9 8.3 89 0.8 NNE 9 9 5 5 1010.7 1009.2 4.6
20/02:00am 10.1 9.7 8.2 88 0.9 CALM 0 6 0 3 1010.6 1009.1 4.6
20/01:30am 9.9 7.7 7.8 87 1.0 NW 9 13 5 7 1010.5 1009.0 4.6
20/01:00am 10.1 7.9 7.7 85 1.2 NE 9 15 5 8 1010.4 1008.9 4.6
20/12:30am 10.1 7.8 7.3 83 1.4 NNW 9 11 5 6 1011.2 1009.7 4.6
20/12:00am 10.4 7.7 7.5 82 1.4 N 11 15 6 8 1011.1 1009.6 4.2
 
Date/Time
EDT
Temp
°C
App
Temp
°C
Dew
Point
°C
Rel
Hum
%
Delta-T
°C
Wind Press
QNH
hPa
Press
MSL
hPa
Rain since
9am
mm
Dir  Spd
km/h
Gust
km/h
Spd
kts
Gust
kts
19/11:30pm 11.5 9.8 7.4 76 2.0 WNW 6 17 3 9 1010.6 1009.1 1.8
19/11:00pm 12.7 9.4 6.3 65 3.1 NW 13 28 7 15 1010.2 1008.6 0.0
19/10:30pm 13.7 8.5 5.6 58 3.9 W 22 35 12 19 1009.6 1008.0 0.0
19/10:00pm 15.5 10.6 3.9 46 5.5 WNW 19 32 10 17 1009.0 1007.4 0.0
19/09:30pm 16.3 12.4 3.4 42 6.0 NNE 13 19 7 10 1008.5 1007.0 0.0
19/09:00pm 15.8 13.0 3.3 43 5.8 NE 7 13 4 7 1008.6 1007.1 0.0
19/08:30pm 16.2 13.3 2.6 40 6.3 NNE 7 9 4 5 1008.6 1007.1 0.0
19/08:00pm 16.6 13.3 2.2 38 6.6 NNW 9 17 5 9 1008.5 1007.0 0.0
19/07:30pm 17.9 13.0 2.2 35 7.3 W 17 28 9 15 1008.4 1006.9 0.0
19/07:00pm 18.3 12.8 1.8 33 7.6 WNW 20 28 11 15 1008.0 1006.5 0.0
19/06:30pm 19.3 13.0 1.8 31 8.1 W 24 33 13 18 1007.7 1006.2 0.0
19/06:00pm 19.6 14.1 2.0 31 8.2 WNW 20 33 11 18 1007.5 1005.9 0.0
19/05:30pm 20.6 14.7 2.0 29 8.7 WNW 22 35 12 19 1007.4 1005.8 0.0
19/05:00pm 20.6 15.2 2.4 30 8.7 W 20 32 11 17 1007.2 1005.6 0.0
19/04:30pm 21.9 16.5 2.6 28 9.3 WNW 20 33 11 18 1007.1 1005.5 0.0
19/04:00pm 21.7 15.1 1.9 27 9.4 NNW 26 41 14 22 1007.2 1005.6 0.0
19/03:30pm 21.7 15.9 2.4 28 9.2 NNW 22 37 12 20 1007.5 1005.9 0.0
19/03:00pm 22.0 16.9 3.2 29 9.2 NNW 19 30 10 16 1007.9 1006.4 0.0
19/02:30pm 22.0 16.8 2.7 28 9.3 NW 19 35 10 19 1008.2 1006.7 0.0
19/02:00pm 21.1 16.0 3.3 31 8.6 WNW 19 37 10 20 1008.6 1007.1 0.0
19/01:30pm 19.7 13.6 2.6 32 8.1 NNW 24 35 13 19 1009.0 1007.4 0.0
19/01:00pm 20.3 15.3 4.4 35 7.8 WNW 20 30 11 16 1009.6 1008.0 0.0
19/12:30pm 19.2 15.7 5.6 41 6.8 NW 13 20 7 11 1010.0 1008.4 0.0
19/12:00pm 17.5 12.6 4.1 41 6.4 WNW 19 28 10 15 1010.7 1009.2 0.0
19/11:30am 17.7 15.2 6.6 48 5.6 WNW 9 20 5 11 1011.0 1009.5 0.0
19/11:00am 17.4 14.2 6.9 50 5.3 NNW 13 19 7 10 1011.0 1009.5 0.0
19/10:30am 16.5 15.5 8.7 60 4.1 SSE 4 7 2 4 1011.2 1009.7 0.0
19/10:00am 15.0 13.9 8.3 64 3.4 NW 4 9 2 5 1011.3 1009.8 0.0
19/09:30am 14.1 13.3 8.3 68 3.0 WNW 2 9 1 5 1011.3 1009.8 0.0
19/09:00am 12.1 11.3 8.2 77 2.0 ESE 2 7 1 4 1011.3 1009.8 0.0
19/08:30am 10.3 9.7 7.4 82 1.4 CALM 0 0 0 0 1011.4 1009.9 0.0
19/08:00am 8.3 7.7 7.2 93 0.5 CALM 0 0 0 0 1011.3 1009.8 0.0
19/07:30am 6.6 5.6 5.4 92 0.5 CALM 0 0 0 0 1011.2 1009.7 0.0
19/07:00am 6.0 4.7 4.3 89 0.7 CALM 0 0 0 0 1010.8 1009.3 0.0
19/06:30am 6.7 5.6 4.9 88 0.8 CALM 0 0 0 0 1010.5 1009.0 0.0
19/06:00am 6.6 5.4 4.6 87 0.9 CALM 0 0 0 0 1010.2 1008.6 0.0
19/05:30am 6.9 5.7 4.7 86 1.0 CALM 0 0 0 0 1010.1 1008.5 0.0
19/05:00am 7.3 6.1 4.6 83 1.2 CALM 0 0 0 0 1010.1 1008.5 0.0
19/04:30am 7.8 6.6 4.7 81 1.4 CALM 0 0 0 0 1010.0 1008.4 0.0
19/04:00am 8.1 7.0 4.9 80 1.4 CALM 0 4 0 2 1009.9 1008.3 0.0
19/03:30am 8.4 6.5 5.0 79 1.5 S 4 7 2 4 1010.0 1008.4 0.0
19/03:00am 9.2 7.7 5.2 76 1.8 ENE 2 7 1 4 1010.1 1008.5 0.0
19/02:30am 9.3 7.8 4.9 74 2.0 NE 2 7 1 4 1010.2 1008.6 0.0
19/02:00am 9.4 8.2 4.4 71 2.3 CALM 0 4 0 2 1010.3 1008.8 0.0
19/01:30am 10.4 9.2 4.5 67 2.7 CALM 0 0 0 0 1010.4 1008.9 0.0
19/01:00am 11.3 10.1 4.7 64 3.1 CALM 0 0 0 0 1010.4 1008.9 0.0
19/12:30am 11.3 8.9 4.3 62 3.2 SSE 6 7 3 4 1010.2 1008.6 0.0
19/12:00am 12.3 11.0 4.3 58 3.7 CALM 0 0 0 0 1010.2 1008.6 0.0
 
Date/Time
EDT
Temp
°C
App
Temp
°C
Dew
Point
°C
Rel
Hum
%
Delta-T
°C
Wind Press
QNH
hPa
Press
MSL
hPa
Rain since
9am
mm
Dir  Spd
km/h
Gust
km/h
Spd
kts
Gust
kts
18/11:30pm 14.2 13.1 5.0 54 4.4 CALM 0 0 0 0 1009.8 1008.2 0.0
18/11:00pm 15.1 13.0 5.6 53 4.6 NNE 6 7 3 4 1009.8 1008.2 0.0
18/10:30pm 15.3 13.5 5.2 51 4.9 N 4 7 2 4 1009.7 1008.1 0.0
18/10:00pm 15.6 13.3 4.9 49 5.1 NNE 6 11 3 6 1009.6 1008.0 0.0
18/09:30pm 17.3 14.3 4.3 42 6.2 NNE 9 11 5 6 1009.4 1007.8 0.0
18/09:00pm 17.2 14.3 4.5 43 6.1 N 9 13 5 7 1009.1 1007.5 0.0
18/08:30pm 17.8 14.8 4.0 40 6.6 NNW 9 11 5 6 1008.6 1007.1 0.0
18/08:00pm 19.2 15.7 3.4 35 7.6 WNW 11 17 6 9 1008.0 1006.5 0.0
18/07:30pm 21.0 16.8 3.7 32 8.4 WNW 15 20 8 11 1007.7 1006.2 0.0
18/07:00pm 22.3 17.8 4.4 31 8.9 WNW 17 24 9 13 1007.5 1005.9 0.0
18/06:30pm 22.5 17.5 3.6 29 9.3 WNW 19 24 10 13 1007.3 1005.7 0.0
18/06:00pm 22.2 17.6 3.8 30 9.1 WNW 17 22 9 12 1007.3 1005.7 0.0
18/05:30pm 22.6 17.0 3.2 28 9.5 WNW 22 33 12 18 1006.9 1005.3 0.0
18/05:00pm 24.8 19.1 5.1 28 10.1 W 24 35 13 19 1006.5 1004.9 0.0
18/04:30pm 24.7 20.1 6.4 31 9.6 W 20 30 11 16 1006.3 1004.7 0.0
18/04:00pm 25.0 18.8 6.2 30 9.9 NW 28 39 15 21 1006.4 1004.8 0.0
18/03:30pm 25.1 19.2 5.8 29 10.0 WNW 26 35 14 19 1006.3 1004.7 0.0
18/03:00pm 25.0 20.2 7.2 32 9.5 NW 22 37 12 20 1006.6 1005.0 0.0
18/02:30pm 24.4 21.0 9.2 38 8.4 W 17 22 9 12 1006.7 1005.1 0.0
18/02:00pm 23.9 19.8 8.7 38 8.3 WNW 20 32 11 17 1006.9 1005.3 0.0
18/01:30pm 24.5 21.1 10.4 41 7.9 W 19 28 10 15 1007.0 1005.4 0.0
18/01:00pm 25.0 20.4 9.7 38 8.5 N 24 33 13 18 1007.2 1005.6 0.0
18/12:30pm 24.1 20.0 10.0 41 7.9 N 22 32 12 17 1007.5 1005.9 0.0
18/12:00pm 23.8 20.5 10.8 44 7.4 NNW 19 30 10 16 1008.0 1006.5 0.0
18/11:30am 22.8 19.3 10.9 47 6.7 WNW 20 28 11 15 1008.3 1006.8 0.0
18/11:00am 22.5 19.8 11.6 50 6.2 N 17 28 9 15 1008.6 1007.1 0.0
18/10:30am 21.2 17.9 11.0 52 5.7 N 19 28 10 15 1008.8 1007.3 0.0
18/10:00am 20.1 17.8 11.6 58 4.8 WNW 15 20 8 11 1009.4 1007.8 0.0
18/09:30am 19.8 18.7 11.8 60 4.5 NW 9 19 5 10 1009.2 1007.6 0.0
18/09:00am 18.4 19.4 13.1 71 3.0 CALM 0 0 0 0 1009.1 1007.5 0.0
18/08:30am 16.3 16.3 12.5 78 2.1 WSW 4 7 2 4 1008.7 1007.2 0.0
18/08:00am 14.6 15.4 12.5 87 1.2 CALM 0 0 0 0 1008.5 1007.0 0.0
18/07:30am 12.6 12.9 10.8 89 1.0 CALM 0 0 0 0 1008.4 1006.9 0.0
18/07:00am 12.1 11.0 10.0 87 1.1 S 6 9 3 5 1007.8 1006.3 0.0
18/06:30am 12.8 13.1 10.9 88 1.0 CALM 0 0 0 0 1007.8 1006.3 0.0
18/06:00am 12.7 12.4 10.2 85 1.3 ENE 2 6 1 3 1007.7 1006.2 0.0
18/05:30am 13.0 13.1 10.0 82 1.6 CALM 0 0 0 0 1007.4 1005.8 0.0
18/05:00am 13.4 13.6 10.4 82 1.6 CALM 0 0 0 0 1007.5 1005.9 0.0
18/04:30am 14.5 14.2 11.5 82 1.6 E 4 7 2 4 1007.6 1006.0 0.0
18/04:00am 15.1 15.6 11.7 80 1.9 CALM 0 0 0 0 1007.6 1006.0 0.0
18/03:30am 15.2 15.9 12.2 82 1.7 CALM 0 0 0 0 1007.5 1005.9 0.0
18/03:00am 14.9 15.3 11.3 79 2.0 CALM 0 0 0 0 1007.5 1005.9 0.0
18/02:30am 15.5 15.1 11.1 75 2.4 S 4 7 2 4 1007.4 1005.8 0.0
18/02:00am 15.8 15.6 10.3 70 3.0 S 2 7 1 4 1007.8 1006.3 0.0
18/01:30am 16.8 17.0 10.6 67 3.4 CALM 0 4 0 2 1007.8 1006.3 0.0
18/01:00am 19.6 17.9 11.1 58 4.7 NE 11 15 6 8 1007.7 1006.2 0.0
18/12:30am 18.1 18.5 12.5 70 3.2 NE 2 7 1 4 1007.9 1006.4 0.0
18/12:00am 17.9 18.1 11.9 68 3.4 S 2 6 1 3 1007.7 1006.2 0.0
 
Date/Time
EDT
Temp
°C
App
Temp
°C
Dew
Point
°C
Rel
Hum
%
Delta-T
°C
Wind Press
QNH
hPa
Press
MSL
hPa
Rain since
9am
mm
Dir  Spd
km/h
Gust
km/h
Spd
kts
Gust
kts
17/11:30pm 17.8 18.2 11.4 66 3.5 CALM 0 4 0 2 1007.8 1006.3 0.0
17/11:00pm 19.3 18.7 12.3 64 4.0 NNE 7 13 4 7 1007.9 1006.4 0.0
17/10:30pm 20.3 20.5 11.8 58 4.8 W 2 9 1 5 1007.8 1006.3 0.0
17/10:00pm 22.5 23.3 12.4 52 5.8 CALM 0 4 0 2 1007.8 1006.3 0.0
17/09:30pm 22.8 22.7 12.1 51 6.1 NNE 4 7 2 4 1007.6 1006.0 0.0
17/09:00pm 24.1 23.4 13.3 51 6.4 NE 9 17 5 9 1007.2 1005.6 0.0
17/08:30pm 25.0 24.7 13.2 48 7.0 N 7 13 4 7 1007.1 1005.5 0.0
17/08:00pm 26.3 26.1 13.1 44 7.9 N 6 9 3 5 1007.1 1005.5 0.0
17/07:30pm 27.4 26.8 11.8 38 9.1 N 6 11 3 6 1007.1 1005.5 0.0
17/07:00pm 28.0 25.6 11.5 35 9.6 N 15 22 8 12 1006.8 1005.2 0.0
17/06:30pm 28.8 27.8 12.2 35 9.8 W 9 15 5 8 1006.8 1005.2 0.0
17/06:00pm 29.5 28.0 12.0 34 10.4 WNW 11 19 6 10 1006.4 1004.8 0.0
17/05:30pm 29.8 26.0 11.3 32 10.8 W 22 30 12 16 1006.5 1004.9 0.0
17/05:00pm 29.9 28.5 12.3 33 10.5 SSW 11 19 6 10 1006.9 1005.3 0.0
17/04:30pm 29.9 28.8 14.4 38 9.5 SE 13 19 7 10 1007.3 1005.7 0.0
17/04:00pm 30.2 28.3 13.0 34 10.4 WSW 15 24 8 13 1007.6 1006.0 0.0
17/03:30pm 29.4 27.3 12.3 34 10.1 W 15 24 8 13 1007.8 1006.3 0.0
17/03:00pm 29.2 26.7 12.2 35 10.1 W 17 28 9 15 1008.1 1006.6 0.0
17/02:30pm 29.7 25.4 12.2 34 10.4 WSW 26 37 14 20 1008.2 1006.7 0.0
17/02:00pm 30.1 27.8 11.6 32 10.9 WNW 15 24 8 13 1008.3 1006.8 0.0
17/01:30pm 30.7 28.3 12.6 33 10.8 WNW 17 24 9 13 1008.5 1007.0 0.0
17/01:00pm 30.4 29.2 12.8 34 10.6 NW 11 20 6 11 1009.0 1007.4 0.0
17/12:30pm 28.5 28.5 13.6 40 9.0 SW 6 9 3 5 1009.4 1007.8 0.0
17/12:00pm 26.8 27.0 11.7 39 8.8 S 2 6 1 3 1009.8 1008.2 0.0
17/11:30am 25.6 25.9 11.0 40 8.3 CALM 0 6 0 3 1010.1 1008.5 0.0
17/11:00am 24.8 24.3 12.1 45 7.4 SW 6 9 3 5 1010.1 1008.5 0.0
17/10:30am 23.8 23.0 11.8 47 6.9 W 7 11 4 6 1010.3 1008.8 0.0
17/10:00am 22.9 23.0 11.6 49 6.4 NW 2 7 1 4 1010.4 1008.9 0.0
17/09:30am 20.9 20.4 12.1 57 5.0 WNW 6 7 3 4 1010.6 1009.1 0.0
17/09:00am 18.9 19.7 12.4 66 3.7 CALM 0 0 0 0 1010.5 1009.0 0.0
17/08:30am 16.2 16.0 11.8 75 2.4 WNW 4 7 2 4 1010.5 1009.0 0.0

Other Formats:

Comma delimited format used in spreadsheet applications
http://www.bom.gov.au/fwo/IDN60801/IDN60801.94919.axf

JavaScript Object Notation format (JSON) in row-major order
http://www.bom.gov.au/fwo/IDN60801/IDN60801.94919.json